createdAt,value
2019-06-15T00:00:55.098Z,100753.78
2019-06-15T00:03:21.963Z,100755.66
2019-06-15T00:05:48.727Z,100743.38
2019-06-15T00:08:15.436Z,100735.65
2019-06-15T00:10:42.114Z,100737.81
2019-06-15T00:13:08.818Z,100727.25
2019-06-15T00:15:35.595Z,100725.78
2019-06-15T00:18:02.387Z,100725.78
2019-06-15T00:20:29.129Z,100715.13
2019-06-15T00:22:55.787Z,100709.98
2019-06-15T00:25:22.630Z,100699.80
2019-06-15T00:27:49.336Z,100696.23
2019-06-15T00:30:16.126Z,100683.02
2019-06-15T00:32:42.829Z,100670.80
2019-06-15T00:35:09.844Z,100663.73
2019-06-15T00:37:36.620Z,100648.42
2019-06-15T00:40:04.630Z,100640.77
2019-06-15T00:42:31.405Z,100632.11
2019-06-15T00:44:58.110Z,100632.56
2019-06-15T00:47:24.830Z,100629.23
2019-06-15T00:49:51.515Z,100622.78
2019-06-15T00:52:18.415Z,100628.85
2019-06-15T00:54:50.297Z,100620.34
2019-06-15T00:57:13.819Z,100613.58
2019-06-15T00:59:40.598Z,100616.16
2019-06-15T01:02:07.326Z,100626.72
2019-06-15T01:04:34.110Z,100623.73
2019-06-15T01:07:00.898Z,100627.99
2019-06-15T01:09:27.594Z,100619.00
2019-06-15T01:11:54.420Z,100611.23
2019-06-15T01:14:21.195Z,100596.15
2019-06-15T01:16:48.003Z,100593.80
2019-06-15T01:19:14.785Z,100591.70
2019-06-15T01:21:41.563Z,100574.33
2019-06-15T01:24:08.323Z,100568.65
2019-06-15T01:26:35.104Z,100567.28
2019-06-15T01:29:01.784Z,100569.28
2019-06-15T01:31:28.487Z,100565.41
2019-06-15T01:33:55.278Z,100560.40
2019-06-15T01:36:22.070Z,100555.41
2019-06-15T01:38:48.766Z,100558.23
2019-06-15T01:41:15.551Z,100549.45
2019-06-15T01:43:42.249Z,100541.92
2019-06-15T01:46:09.055Z,100537.00
2019-06-15T01:48:35.852Z,100542.47
2019-06-15T01:51:02.799Z,100539.30
2019-06-15T01:53:29.585Z,100545.13
2019-06-15T01:55:57.422Z,100533.29
2019-06-15T01:58:24.114Z,100526.30
2019-06-15T02:00:50.827Z,100516.53
2019-06-15T02:03:18.610Z,100506.38
2019-06-15T02:05:45.293Z,100509.26
2019-06-15T02:08:12.103Z,100509.26
2019-06-15T02:10:38.804Z,100501.23
2019-06-15T02:13:05.603Z,100502.18
2019-06-15T02:15:32.394Z,100503.51
2019-06-15T02:17:59.184Z,100489.63
2019-06-15T02:20:26.115Z,100487.13
2019-06-15T02:22:52.797Z,100475.88
2019-06-15T02:25:34.886Z,100474.54
2019-06-15T02:27:52.298Z,100481.84
2019-06-15T02:30:26.094Z,100482.64
2019-06-15T02:32:53.157Z,100474.92
2019-06-15T02:35:19.963Z,100485.65
2019-06-15T02:37:46.738Z,100485.80
2019-06-15T02:40:13.633Z,100482.36
2019-06-15T02:42:40.329Z,100481.16
2019-06-15T02:45:07.429Z,100476.84
2019-06-15T02:47:34.240Z,100483.11
2019-06-15T02:50:01.085Z,100476.64
2019-06-15T02:52:28.134Z,100471.77
2019-06-15T02:54:54.850Z,100472.30
2019-06-15T02:57:21.527Z,100460.86
2019-06-15T02:59:48.251Z,100449.81
2019-06-15T03:02:15.057Z,100453.09
2019-06-15T03:04:41.746Z,100459.45
2019-06-15T03:07:08.654Z,100462.70
2019-06-15T03:09:35.434Z,100468.88
2019-06-15T03:12:02.320Z,100479.47
2019-06-15T03:14:29.001Z,100474.69
2019-06-15T03:17:29.367Z,100474.97
2019-06-15T03:20:19.045Z,100471.08
2019-06-15T03:22:45.725Z,100473.58
2019-06-15T03:25:12.811Z,100464.82
2019-06-15T03:27:39.521Z,100469.61
2019-06-15T03:30:06.820Z,100470.98
2019-06-15T03:32:33.626Z,100464.78
2019-06-15T03:35:00.320Z,100470.25
2019-06-15T03:37:27.001Z,100472.41
2019-06-15T03:39:53.708Z,100485.02
2019-06-15T03:42:20.396Z,100487.80
2019-06-15T03:44:47.186Z,100496.19
2019-06-15T03:47:13.979Z,100505.45
2019-06-15T03:49:41.778Z,100516.88
2019-06-15T03:52:08.489Z,100528.30
2019-06-15T03:54:35.293Z,100542.27
2019-06-15T03:57:01.966Z,100540.56
2019-06-15T03:59:28.743Z,100548.17
2019-06-15T04:01:55.483Z,100554.94
2019-06-15T04:04:22.162Z,100560.62
2019-06-15T04:06:48.842Z,100552.13
2019-06-15T04:09:15.536Z,100545.58
2019-06-15T04:11:42.199Z,100551.42
2019-06-15T04:14:09.047Z,100558.62
2019-06-15T04:16:35.839Z,100554.19
2019-06-15T04:19:02.808Z,100531.97
2019-06-15T04:21:29.575Z,100503.78
2019-06-15T04:23:56.447Z,100485.31
2019-06-15T04:26:35.290Z,100468.41
2019-06-15T04:28:51.784Z,100466.36
2019-06-15T04:31:18.471Z,100469.52
2019-06-15T04:33:45.186Z,100475.84
2019-06-15T04:36:11.960Z,100462.21
2019-06-15T04:38:38.652Z,100451.69
2019-06-15T04:41:05.502Z,100442.06
2019-06-15T04:43:33.330Z,100441.69
2019-06-15T04:46:00.040Z,100444.95
2019-06-15T04:48:44.908Z,100444.70
2019-06-15T04:51:11.609Z,100456.11
2019-06-15T04:53:38.276Z,100467.42
2019-06-15T04:56:05.179Z,100478.38
2019-06-15T04:58:31.966Z,100483.84
2019-06-15T05:00:58.747Z,100486.44
2019-06-15T05:03:25.532Z,100488.53
2019-06-15T05:05:52.282Z,100490.69
2019-06-15T05:08:18.950Z,100485.48
2019-06-15T05:10:45.835Z,100475.34
2019-06-15T05:13:12.538Z,100465.20
2019-06-15T05:15:39.337Z,100467.05
2019-06-15T05:18:05.998Z,100457.72
2019-06-15T05:20:32.730Z,100445.35
2019-06-15T05:22:59.495Z,100436.58
2019-06-15T05:25:26.329Z,100438.48
2019-06-15T05:27:53.155Z,100437.36
2019-06-15T05:30:20.961Z,100423.80
2019-06-15T05:32:47.841Z,100427.22
2019-06-15T05:35:14.927Z,100445.92
2019-06-15T05:37:41.714Z,100442.06
2019-06-15T05:40:09.654Z,100433.18
2019-06-15T05:42:37.453Z,100426.05
2019-06-15T05:45:05.080Z,100418.34
2019-06-15T05:47:31.863Z,100415.64
2019-06-15T05:49:58.568Z,100409.75
2019-06-15T05:52:25.374Z,100415.54
2019-06-15T05:54:52.057Z,100413.04
2019-06-15T05:57:21.885Z,100411.73
2019-06-15T05:59:47.416Z,100409.45
2019-06-15T06:02:14.104Z,100411.98
2019-06-15T06:04:40.829Z,100404.75
2019-06-15T06:07:07.795Z,100396.36
2019-06-15T06:09:36.446Z,100396.42
2019-06-15T06:12:03.146Z,100379.12
2019-06-15T06:14:29.829Z,100364.28
2019-06-15T06:16:56.499Z,100350.78
2019-06-15T06:19:23.192Z,100334.75
2019-06-15T06:21:51.780Z,100290.12
2019-06-15T06:24:19.648Z,100226.84
2019-06-15T06:26:46.426Z,100189.74
2019-06-15T06:29:13.415Z,100157.27
2019-06-15T06:31:40.184Z,100150.69
2019-06-15T06:34:07.157Z,100153.78
2019-06-15T06:36:33.838Z,100155.21
2019-06-15T06:39:00.544Z,100132.95
2019-06-15T06:41:27.417Z,100150.80
2019-06-15T06:43:54.245Z,100245.23
2019-06-15T06:46:21.085Z,100320.30
2019-06-15T06:48:48.037Z,100332.13
2019-06-15T06:51:14.726Z,100321.09
2019-06-15T06:53:41.406Z,100300.00
2019-06-15T06:56:08.222Z,100303.86
2019-06-15T06:58:34.922Z,100301.73
2019-06-15T07:01:01.837Z,100271.37
2019-06-15T07:03:28.754Z,100252.86
2019-06-15T07:05:55.444Z,100258.73
2019-06-15T07:08:22.247Z,100271.63
2019-06-15T07:10:48.938Z,100300.58
2019-06-15T07:13:15.669Z,100315.13
2019-06-15T07:15:42.758Z,100312.50
2019-06-15T07:18:09.455Z,100288.73
2019-06-15T07:20:36.238Z,100256.06
2019-06-15T07:25:43.323Z,100208.30
2019-06-15T07:28:10.481Z,100214.98
2019-06-15T07:30:38.744Z,100207.42
2019-06-15T07:33:05.560Z,100197.86
2019-06-15T07:35:32.234Z,100199.60
2019-06-15T07:37:59.087Z,100186.93
2019-06-15T07:40:25.841Z,100188.26
2019-06-15T07:42:52.688Z,100212.45
2019-06-15T07:45:19.991Z,100224.77
2019-06-15T07:47:46.735Z,100220.59
2019-06-15T07:50:13.615Z,100199.34
2019-06-15T07:52:40.304Z,100176.36
2019-06-15T07:55:07.840Z,100145.02
2019-06-15T07:57:36.127Z,100153.33
2019-06-15T08:00:04.012Z,100154.19
2019-06-15T08:02:31.085Z,100150.85
2019-06-15T08:04:57.779Z,100141.65
2019-06-15T08:07:24.474Z,100154.50
2019-06-15T08:09:51.257Z,100172.42
2019-06-15T08:12:18.243Z,100208.49
2019-06-15T08:14:44.944Z,100217.73
2019-06-15T08:17:11.686Z,100225.52
2019-06-15T08:19:38.465Z,100231.03
2019-06-15T08:22:05.241Z,100227.28
2019-06-15T08:24:31.946Z,100219.24
2019-06-15T08:26:58.640Z,100219.19
2019-06-15T08:29:25.337Z,100216.27
2019-06-15T08:31:52.147Z,100219.61
2019-06-15T08:34:18.940Z,100234.98
2019-06-15T08:36:45.681Z,100234.05
2019-06-15T08:39:12.361Z,100238.66
2019-06-15T08:41:39.159Z,100247.08
2019-06-15T08:44:06.472Z,100252.20
2019-06-15T08:46:33.172Z,100251.00
2019-06-15T08:49:00.418Z,100237.91
2019-06-15T08:51:28.471Z,100226.19
2019-06-15T08:53:56.706Z,100230.26
2019-06-15T08:56:24.629Z,100239.92
2019-06-15T08:58:55.725Z,100251.02
2019-06-15T09:01:22.151Z,100245.08
2019-06-15T09:03:50.150Z,100249.88
2019-06-15T09:06:17.857Z,100251.20
2019-06-15T09:08:45.390Z,100255.32
2019-06-15T09:11:13.953Z,100249.64
2019-06-15T09:13:41.841Z,100248.97
2019-06-15T09:16:09.806Z,100238.11
2019-06-15T09:18:36.774Z,100231.50
2019-06-15T09:21:04.332Z,100236.23
2019-06-15T09:23:31.866Z,100237.04
2019-06-15T09:25:58.834Z,100234.99
2019-06-15T09:28:25.529Z,100235.06
2019-06-15T09:30:52.212Z,100232.63
2019-06-15T09:33:19.019Z,100221.75
2019-06-15T09:35:45.830Z,100223.61
2019-06-15T09:38:12.638Z,100218.02
2019-06-15T09:40:39.482Z,100221.48
2019-06-15T09:43:06.271Z,100220.86
2019-06-15T09:45:33.565Z,100205.75
2019-06-15T09:48:00.253Z,100209.28
2019-06-15T09:50:27.933Z,100217.67
2019-06-15T09:52:54.765Z,100216.77
2019-06-15T09:55:22.123Z,100213.77
2019-06-15T09:57:48.806Z,100210.10
2019-06-15T10:00:15.964Z,100210.95
2019-06-15T10:02:42.736Z,100216.23
2019-06-15T10:05:09.818Z,100213.98
2019-06-15T10:07:36.695Z,100219.59
2019-06-15T10:10:03.999Z,100219.17
2019-06-15T10:12:30.804Z,100231.31
2019-06-15T10:14:57.477Z,100228.75
2019-06-15T10:17:24.279Z,100226.45
2019-06-15T10:19:51.763Z,100237.72
2019-06-15T10:22:18.674Z,100234.36
2019-06-15T10:24:45.423Z,100231.02
2019-06-15T10:27:12.245Z,100234.92
2019-06-15T10:29:42.296Z,100234.00
2019-06-15T10:32:07.923Z,100236.05
2019-06-15T10:34:34.708Z,100236.80
2019-06-15T10:37:01.716Z,100230.46
2019-06-15T10:39:28.499Z,100240.19
2019-06-15T10:41:55.206Z,100239.75
2019-06-15T10:44:21.904Z,100234.27
2019-06-15T10:46:48.695Z,100244.84
2019-06-15T10:49:15.506Z,100258.16
2019-06-15T10:51:42.203Z,100255.62
2019-06-15T10:54:08.983Z,100269.11
2019-06-15T10:56:35.784Z,100263.95
2019-06-15T10:59:02.512Z,100266.45
2019-06-15T11:01:29.308Z,100263.44
2019-06-15T11:03:56.195Z,100270.77
2019-06-15T11:06:23.015Z,100268.33
2019-06-15T11:08:49.701Z,100271.36
2019-06-15T11:11:21.637Z,100275.26
2019-06-15T11:13:48.254Z,100278.66
2019-06-15T11:16:15.154Z,100287.84
2019-06-15T11:18:42.986Z,100286.70
2019-06-15T11:21:10.196Z,100285.67
2019-06-15T11:23:37.160Z,100282.47
2019-06-15T11:26:04.056Z,100284.77
2019-06-15T11:28:30.968Z,100286.44
2019-06-15T11:30:57.909Z,100291.09
2019-06-15T11:33:24.626Z,100293.51
2019-06-15T11:35:51.325Z,100297.54
2019-06-15T11:38:18.490Z,100299.30
2019-06-15T11:40:45.708Z,100300.00
2019-06-15T11:43:12.485Z,100306.39
2019-06-15T11:45:39.296Z,100304.09
2019-06-15T11:48:06.119Z,100309.13
2019-06-15T11:50:32.924Z,100314.16
2019-06-15T11:53:00.329Z,100317.41
2019-06-15T11:55:38.982Z,100324.21
2019-06-15T11:57:55.751Z,100324.68
2019-06-15T12:00:31.243Z,100323.92
2019-06-15T12:02:55.027Z,100327.09
2019-06-15T12:05:21.816Z,100320.66
2019-06-15T12:07:48.492Z,100322.49
2019-06-15T12:10:15.268Z,100334.39
2019-06-15T12:12:41.944Z,100338.46
2019-06-15T12:15:08.699Z,100340.45
2019-06-15T12:17:35.418Z,100342.73
2019-06-15T12:20:02.238Z,100348.02
2019-06-15T12:22:29.141Z,100347.81
2019-06-15T12:24:55.854Z,100345.33
2019-06-15T12:27:22.569Z,100350.77
2019-06-15T12:29:49.439Z,100356.93
2019-06-15T12:32:17.464Z,100357.03
2019-06-15T12:34:44.285Z,100360.51
2019-06-15T12:37:12.075Z,100363.38
2019-06-15T12:39:41.848Z,100371.79
2019-06-15T12:42:08.373Z,100366.64
2019-06-15T12:44:35.075Z,100368.52
2019-06-15T12:47:02.254Z,100362.27
2019-06-15T12:49:28.916Z,100363.96
2019-06-15T12:51:55.682Z,100369.69
2019-06-15T12:54:22.585Z,100368.96
2019-06-15T12:56:49.420Z,100371.97
2019-06-15T12:59:16.119Z,100373.97
2019-06-15T13:01:42.886Z,100384.41
2019-06-15T13:04:10.675Z,100385.40
2019-06-15T13:06:37.347Z,100384.11
2019-06-15T13:09:05.615Z,100383.69
2019-06-15T13:11:32.311Z,100385.64
2019-06-15T13:13:59.088Z,100383.26
2019-06-15T13:16:38.527Z,100391.52
2019-06-15T13:18:54.546Z,100386.77
2019-06-15T13:21:21.334Z,100391.40
2019-06-15T13:23:48.107Z,100386.47
2019-06-15T13:26:14.814Z,100390.50
2019-06-15T13:28:41.619Z,100393.68
2019-06-15T13:31:17.706Z,100399.37
2019-06-15T13:33:37.128Z,100399.32
2019-06-15T13:36:03.884Z,100400.59
2019-06-15T13:38:30.569Z,100403.45
2019-06-15T13:40:57.476Z,100407.22
2019-06-15T13:43:25.246Z,100403.69
2019-06-15T13:46:06.202Z,100411.25
2019-06-15T13:48:33.023Z,100417.20
2019-06-15T13:50:59.710Z,100422.23
2019-06-15T13:53:26.415Z,100429.41
2019-06-15T13:55:53.246Z,100426.72
2019-06-15T13:58:19.945Z,100432.12
2019-06-15T14:00:46.792Z,100426.48
2019-06-15T14:03:13.498Z,100431.86
2019-06-15T14:05:40.441Z,100436.97
2019-06-15T14:08:07.133Z,100440.77
2019-06-15T14:10:50.763Z,100441.14
2019-06-15T14:13:18.045Z,100447.52
2019-06-15T14:15:44.695Z,100443.24
2019-06-15T14:18:11.382Z,100449.32
2019-06-15T14:20:38.808Z,100455.27
2019-06-15T14:23:05.522Z,100446.92
2019-06-15T14:25:32.235Z,100450.65
2019-06-15T14:27:58.959Z,100443.10
2019-06-15T14:30:25.722Z,100448.39
2019-06-15T14:32:52.493Z,100445.27
2019-06-15T14:35:19.195Z,100452.92
2019-06-15T14:37:45.899Z,100461.36
2019-06-15T14:40:15.571Z,100453.55
2019-06-15T14:42:42.252Z,100451.27
2019-06-15T14:45:10.164Z,100456.73
2019-06-15T14:47:36.959Z,100463.40
2019-06-15T14:50:04.318Z,100467.69
2019-06-15T14:52:31.649Z,100467.64
2019-06-15T14:54:58.333Z,100470.34
2019-06-15T14:57:26.982Z,100471.08
2019-06-15T15:00:01.404Z,100483.89
2019-06-15T15:02:22.194Z,100498.39
2019-06-15T15:04:48.854Z,100493.31
2019-06-15T15:07:16.927Z,100505.05
2019-06-15T15:09:46.024Z,100511.53
2019-06-15T15:12:16.167Z,100513.94
2019-06-15T15:14:43.105Z,100514.47
2019-06-15T15:17:09.908Z,100520.56
2019-06-15T15:19:36.587Z,100516.91
2019-06-15T15:22:03.486Z,100520.44
2019-06-15T15:24:30.214Z,100525.36
2019-06-15T15:26:57.088Z,100515.22
2019-06-15T15:29:23.963Z,100517.44
2019-06-15T15:31:51.386Z,100523.84
2019-06-15T15:34:18.076Z,100523.60
2019-06-15T15:36:46.194Z,100513.81
2019-06-15T15:39:13.180Z,100506.66
2019-06-15T15:41:39.961Z,100503.70
2019-06-15T15:44:06.646Z,100495.30
2019-06-15T15:46:33.440Z,100504.30
2019-06-15T15:49:00.298Z,100507.59
2019-06-15T15:51:27.070Z,100511.37
2019-06-15T15:53:53.754Z,100515.77
2019-06-15T15:56:20.537Z,100531.06
2019-06-15T15:58:47.453Z,100527.73
2019-06-15T16:01:16.904Z,100534.59
2019-06-15T16:03:42.933Z,100539.09
2019-06-15T16:06:09.746Z,100544.13
2019-06-15T16:08:36.432Z,100540.02
2019-06-15T16:11:03.377Z,100551.60
2019-06-15T16:13:30.244Z,100556.34
2019-06-15T16:15:57.013Z,100559.80
2019-06-15T16:18:23.824Z,100563.53
2019-06-15T16:20:50.623Z,100564.23
2019-06-15T16:23:17.285Z,100562.80
2019-06-15T16:25:46.193Z,100575.93
2019-06-15T16:28:12.638Z,100581.83
2019-06-15T16:31:00.286Z,100583.73
2019-06-15T16:33:08.213Z,100589.27
2019-06-15T16:35:36.137Z,100593.59
2019-06-15T16:38:02.989Z,100601.73
2019-06-15T16:40:34.499Z,100607.16
2019-06-15T16:43:02.184Z,100608.48
2019-06-15T16:45:28.890Z,100622.38
2019-06-15T16:47:55.570Z,100623.45
2019-06-15T16:50:22.484Z,100635.06
2019-06-15T16:52:49.282Z,100637.53
2019-06-15T16:55:16.849Z,100638.34
2019-06-15T16:57:46.485Z,100642.83
2019-06-15T17:00:17.983Z,100640.23
2019-06-15T17:02:46.896Z,100650.38
2019-06-15T17:05:13.559Z,100639.67
2019-06-15T17:07:40.340Z,100650.19
2019-06-15T17:10:07.148Z,100648.49
2019-06-15T17:12:33.820Z,100653.81
2019-06-15T17:15:00.527Z,100662.09
2019-06-15T17:17:27.222Z,100660.28
2019-06-15T17:19:53.898Z,100663.92
2019-06-15T17:22:21.595Z,100661.31
2019-06-15T17:24:48.519Z,100661.78
2019-06-15T17:27:17.098Z,100662.84
2019-06-15T17:29:43.854Z,100664.72
2019-06-15T17:32:10.658Z,100669.15
2019-06-15T17:34:37.437Z,100667.78
2019-06-15T17:37:06.687Z,100666.68
2019-06-15T17:39:32.821Z,100666.56
2019-06-15T17:41:59.511Z,100659.05
2019-06-15T17:44:26.202Z,100659.46
2019-06-15T17:46:52.962Z,100654.78
2019-06-15T17:49:19.759Z,100667.59
2019-06-15T17:51:46.615Z,100667.95
2019-06-15T17:54:13.287Z,100672.09
2019-06-15T17:56:40.078Z,100661.14
2019-06-15T17:59:06.867Z,100677.22
2019-06-15T18:01:36.286Z,100677.50
2019-06-15T18:04:03.371Z,100690.45
2019-06-15T18:06:30.063Z,100684.94
2019-06-15T18:08:56.758Z,100683.88
2019-06-15T18:11:26.010Z,100691.45
2019-06-15T18:13:52.137Z,100697.11
2019-06-15T18:16:18.802Z,100696.12
2019-06-15T18:18:45.561Z,100706.56
2019-06-15T18:21:12.374Z,100712.55
2019-06-15T18:23:39.060Z,100702.22
2019-06-15T18:26:07.159Z,100704.00
2019-06-15T18:28:36.237Z,100708.89
2019-06-15T18:31:02.734Z,100705.61
2019-06-15T18:33:29.586Z,100716.09
2019-06-15T18:35:56.331Z,100723.78
2019-06-15T18:38:23.077Z,100713.21
2019-06-15T18:40:49.781Z,100715.55
2019-06-15T18:43:17.027Z,100712.48
2019-06-15T18:45:43.998Z,100694.22
2019-06-15T18:48:10.809Z,100706.39
2019-06-15T18:50:38.599Z,100701.86
2019-06-15T18:53:07.151Z,100708.31
2019-06-15T18:55:36.333Z,100703.20
2019-06-15T18:58:03.371Z,100709.89
2019-06-15T19:00:30.250Z,100722.70
2019-06-15T19:02:57.143Z,100730.02
2019-06-15T19:05:26.076Z,100734.64
2019-06-15T19:07:52.900Z,100732.84
2019-06-15T19:10:34.111Z,100730.89
2019-06-15T19:13:01.236Z,100728.49
2019-06-15T19:15:28.137Z,100727.53
2019-06-15T19:17:55.984Z,100722.75
2019-06-15T19:20:23.010Z,100734.50
2019-06-15T19:22:49.820Z,100740.02
2019-06-15T19:25:17.729Z,100747.70
2019-06-15T19:27:44.373Z,100742.02
2019-06-15T19:30:11.377Z,100746.33
2019-06-15T19:32:38.047Z,100735.43
2019-06-15T19:35:04.930Z,100741.41
2019-06-15T19:37:33.911Z,100745.79
2019-06-15T19:40:00.419Z,100742.14
2019-06-15T19:42:27.092Z,100760.03
2019-06-15T19:44:56.105Z,100760.13
2019-06-15T19:47:22.457Z,100768.45
2019-06-15T19:49:49.126Z,100773.38
2019-06-15T19:52:16.914Z,100786.85
2019-06-15T19:54:43.862Z,100793.05
2019-06-15T19:57:10.657Z,100798.24
2019-06-15T19:59:37.446Z,100791.45
2019-06-15T20:02:06.646Z,100805.38
2019-06-15T20:04:32.820Z,100803.89
2019-06-15T20:06:59.605Z,100810.63
2019-06-15T20:09:26.314Z,100804.16
2019-06-15T20:11:53.026Z,100812.16
2019-06-15T20:14:19.800Z,100814.29
2019-06-15T20:16:47.043Z,100828.69
2019-06-15T20:19:13.918Z,100831.08
2019-06-15T20:21:40.594Z,100836.83
2019-06-15T20:24:07.391Z,100830.05
2019-06-15T20:26:36.521Z,100840.03
2019-06-15T20:29:02.893Z,100860.80
2019-06-15T20:31:29.575Z,100843.23
2019-06-15T20:33:57.035Z,100858.67
2019-06-15T20:36:23.719Z,100847.20
2019-06-15T20:38:50.533Z,100859.85
2019-06-15T20:41:17.213Z,100811.21
2019-06-15T20:43:46.029Z,100868.31
2019-06-15T20:46:12.606Z,100874.23
2019-06-15T20:48:39.449Z,100876.61
2019-06-15T20:51:10.078Z,100893.00
2019-06-15T20:53:36.755Z,100895.64
2019-06-15T20:56:03.565Z,100906.91
2019-06-15T20:58:30.253Z,100907.37
2019-06-15T21:00:56.919Z,100925.68
2019-06-15T21:03:23.745Z,100933.27
2019-06-15T21:05:50.400Z,100941.26
2019-06-15T21:08:17.155Z,100943.84
2019-06-15T21:10:46.146Z,100944.84
2019-06-15T21:13:12.500Z,100940.39
2019-06-15T21:15:43.006Z,100947.33
2019-06-15T21:18:09.852Z,100953.06
2019-06-15T21:20:36.587Z,100944.20
2019-06-15T21:23:03.408Z,100955.99
2019-06-15T21:25:30.112Z,100960.25
2019-06-15T21:27:56.949Z,100956.34
2019-06-15T21:30:23.780Z,100959.02
2019-06-15T21:32:50.567Z,100963.02
2019-06-15T21:35:17.257Z,100968.47
2019-06-15T21:37:46.305Z,100968.99
2019-06-15T21:40:15.960Z,100975.16
2019-06-15T21:42:42.420Z,100974.44
2019-06-15T21:45:09.205Z,100980.27
2019-06-15T21:47:37.093Z,100975.50
2019-06-15T21:50:04.939Z,100975.36
2019-06-15T21:52:31.622Z,100982.39
2019-06-15T21:54:59.417Z,100981.33
2019-06-15T21:57:26.905Z,100985.18
2019-06-15T21:59:53.759Z,100991.74
2019-06-15T22:02:20.553Z,100991.91
2019-06-15T22:04:47.330Z,100999.09
2019-06-15T22:07:16.764Z,101003.90
2019-06-15T22:09:42.606Z,101009.85
2019-06-15T22:12:09.386Z,101013.25
2019-06-15T22:14:36.176Z,101009.51
2019-06-15T22:17:02.973Z,101008.09
2019-06-15T22:19:29.638Z,101006.43
2019-06-15T22:21:56.557Z,101007.38
2019-06-15T22:24:23.217Z,101011.17
2019-06-15T22:26:49.984Z,101014.16
2019-06-15T22:29:16.975Z,101012.12
2019-06-15T22:31:43.675Z,101012.65
2019-06-15T22:34:10.447Z,101011.23
2019-06-15T22:36:37.245Z,101013.55
2019-06-15T22:39:06.411Z,101016.08
2019-06-15T22:41:36.041Z,101012.59
2019-06-15T22:44:03.244Z,101016.23
2019-06-15T22:46:29.944Z,101012.80
2019-06-15T22:48:56.706Z,101015.16
2019-06-15T22:51:23.377Z,101014.82
2019-06-15T22:53:50.204Z,101016.23
2019-06-15T22:56:17.364Z,101019.73
2019-06-15T22:58:46.155Z,101023.06
2019-06-15T23:01:12.782Z,101018.41
2019-06-15T23:03:39.557Z,101026.95
2019-06-15T23:06:07.008Z,101037.63
2019-06-15T23:08:36.167Z,101034.39
2019-06-15T23:11:02.541Z,101033.22
2019-06-15T23:13:29.210Z,101043.44
2019-06-15T23:15:56.513Z,101041.11
2019-06-15T23:18:23.289Z,101043.65
2019-06-15T23:20:50.641Z,101044.97
2019-06-15T23:23:17.313Z,101046.23
2019-06-15T23:25:44.175Z,101052.80
2019-06-15T23:28:10.948Z,101045.77
2019-06-15T23:30:37.845Z,101056.23
2019-06-15T23:33:06.539Z,101053.80
2019-06-15T23:35:39.133Z,101060.58
2019-06-15T23:38:06.557Z,101062.09
2019-06-15T23:40:35.906Z,101071.16
2019-06-15T23:43:02.092Z,101073.53
2019-06-15T23:45:28.769Z,101067.86
2019-06-15T23:47:57.549Z,101069.25
2019-06-15T23:50:26.431Z,101064.34
2019-06-15T23:52:53.112Z,101059.98
2019-06-15T23:55:20.005Z,101060.33
2019-06-15T23:57:47.832Z,101062.65
